createdAt,value
2019-05-07T00:01:33.967Z,70.17
2019-05-07T00:04:07.753Z,70.16
2019-05-07T00:06:40.442Z,70.69
2019-05-07T00:09:12.671Z,70.95
2019-05-07T00:11:44.954Z,71.20
2019-05-07T00:14:17.433Z,71.28
2019-05-07T00:16:49.654Z,71.82
2019-05-07T00:19:23.088Z,72.06
2019-05-07T00:21:55.558Z,72.05
2019-05-07T00:24:28.015Z,72.25
2019-05-07T00:27:02.605Z,72.47
2019-05-07T00:29:34.379Z,72.76
2019-05-07T00:32:06.618Z,73.08
2019-05-07T00:34:38.929Z,72.98
2019-05-07T00:37:13.094Z,73.16
2019-05-07T00:39:45.192Z,73.28
2019-05-07T00:42:17.405Z,73.26
2019-05-07T00:44:49.764Z,73.48
2019-05-07T00:47:22.286Z,73.62
2019-05-07T00:49:54.640Z,73.25
2019-05-07T00:52:27.280Z,73.18
2019-05-07T00:54:59.575Z,73.30
2019-05-07T00:57:33.175Z,73.37
2019-05-07T01:00:05.959Z,73.41
2019-05-07T01:02:38.946Z,73.59
2019-05-07T01:05:12.335Z,73.59
2019-05-07T01:07:44.986Z,73.73
2019-05-07T01:10:17.334Z,73.78
2019-05-07T01:12:49.568Z,73.83
2019-05-07T01:15:30.702Z,73.70
2019-05-07T01:17:55.958Z,73.61
2019-05-07T01:20:28.456Z,73.75
2019-05-07T01:23:02.636Z,73.65
2019-05-07T01:25:35.146Z,74.00
2019-05-07T01:28:07.416Z,73.78
2019-05-07T01:30:39.727Z,73.95
2019-05-07T01:33:12.305Z,73.80
2019-05-07T01:35:44.684Z,73.88
2019-05-07T01:38:16.974Z,73.66
2019-05-07T01:40:49.299Z,73.33
2019-05-07T01:43:22.747Z,73.21
2019-05-07T01:45:55.181Z,73.04
2019-05-07T01:48:27.446Z,72.85
2019-05-07T01:50:59.690Z,73.00
2019-05-07T01:53:32.465Z,72.87
2019-05-07T01:56:05.100Z,72.63
2019-05-07T01:58:37.364Z,72.68
2019-05-07T02:01:09.605Z,72.97
2019-05-07T02:03:42.062Z,73.26
2019-05-07T02:06:14.389Z,73.70
2019-05-07T02:08:46.689Z,73.40
2019-05-07T02:11:18.926Z,73.65
2019-05-07T02:13:52.954Z,73.95
2019-05-07T02:16:25.111Z,73.74
2019-05-07T02:18:57.361Z,73.85
2019-05-07T02:21:32.929Z,73.94
2019-05-07T02:24:05.475Z,74.00
2019-05-07T02:26:37.885Z,74.13
2019-05-07T02:29:12.094Z,74.10
2019-05-07T02:31:44.557Z,74.04
2019-05-07T02:34:16.942Z,74.03
2019-05-07T02:36:49.413Z,74.39
2019-05-07T02:39:24.136Z,74.41
2019-05-07T02:41:55.627Z,74.44
2019-05-07T02:44:28.950Z,74.19
2019-05-07T02:47:04.403Z,74.20
2019-05-07T02:49:36.704Z,74.25
2019-05-07T02:52:08.981Z,74.17
2019-05-07T02:54:43.625Z,74.37
2019-05-07T02:57:17.013Z,74.55
2019-05-07T02:59:49.191Z,74.43
2019-05-07T03:02:24.141Z,74.72
2019-05-07T03:04:55.386Z,74.94
2019-05-07T03:07:27.708Z,75.13
2019-05-07T03:10:03.365Z,75.25
2019-05-07T03:12:34.132Z,75.30
2019-05-07T03:15:06.419Z,75.41
2019-05-07T03:17:38.686Z,75.41
2019-05-07T03:20:13.753Z,75.38
2019-05-07T03:22:44.879Z,75.45
2019-05-07T03:25:17.170Z,75.39
2019-05-07T03:27:53.359Z,75.27
2019-05-07T03:30:25.936Z,75.38
2019-05-07T03:32:58.829Z,75.50
2019-05-07T03:35:36.450Z,75.52
2019-05-07T03:38:05.252Z,75.70
2019-05-07T03:40:37.531Z,75.68
2019-05-07T03:43:09.740Z,75.71
2019-05-07T03:45:43.293Z,75.83
2019-05-07T03:48:15.738Z,75.73
2019-05-07T03:50:48.033Z,75.80
2019-05-07T03:53:22.999Z,75.82
2019-05-07T03:55:56.011Z,75.59
2019-05-07T03:58:28.454Z,75.33
2019-05-07T04:01:03.936Z,75.38
2019-05-07T04:03:34.790Z,75.30
2019-05-07T04:06:07.200Z,75.27
2019-05-07T04:08:42.814Z,75.13
2019-05-07T04:11:14.236Z,74.73
2019-05-07T04:13:46.498Z,74.24
2019-05-07T04:16:18.764Z,74.22
2019-05-07T04:18:53.048Z,73.88
2019-05-07T04:21:27.396Z,73.82
2019-05-07T04:23:59.769Z,73.70
2019-05-07T04:26:33.929Z,73.44
2019-05-07T04:29:06.514Z,73.13
2019-05-07T04:31:38.871Z,73.08
2019-05-07T04:34:13.385Z,73.06
2019-05-07T04:36:45.220Z,72.80
2019-05-07T04:39:17.485Z,72.52
2019-05-07T04:41:52.823Z,72.49
2019-05-07T04:44:23.926Z,72.08
2019-05-07T04:46:56.248Z,72.10
2019-05-07T04:49:28.526Z,72.00
2019-05-07T04:52:03.716Z,71.60
2019-05-07T04:54:35.029Z,71.32
2019-05-07T04:57:07.307Z,71.16
2019-05-07T04:59:45.906Z,71.13
2019-05-07T05:02:18.260Z,71.17
2019-05-07T05:04:53.012Z,70.90
2019-05-07T05:07:24.460Z,70.83
2019-05-07T05:09:56.835Z,70.78
2019-05-07T05:12:29.107Z,70.61
2019-05-07T05:15:02.141Z,70.79
2019-05-07T05:17:47.134Z,71.29
2019-05-07T05:20:08.776Z,71.46
2019-05-07T05:22:42.482Z,71.70
2019-05-07T05:25:14.852Z,71.70
2019-05-07T05:27:47.125Z,71.61
2019-05-07T05:30:21.869Z,71.42
2019-05-07T05:32:53.691Z,70.83
2019-05-07T05:35:27.934Z,70.29
2019-05-07T05:38:00.231Z,70.23
2019-05-07T05:40:32.578Z,69.83
2019-05-07T05:43:04.836Z,69.29
2019-05-07T05:45:37.879Z,69.23
2019-05-07T05:48:13.342Z,68.93
2019-05-07T05:50:44.655Z,68.48
2019-05-07T05:53:16.952Z,68.08
2019-05-07T05:55:49.224Z,68.22
2019-05-07T05:58:24.109Z,67.60
2019-05-07T06:00:55.525Z,67.25
2019-05-07T06:03:28.035Z,67.06
2019-05-07T06:06:01.998Z,66.82
2019-05-07T06:08:34.565Z,66.32
2019-05-07T06:11:06.859Z,66.59
2019-05-07T06:13:39.453Z,66.75
2019-05-07T06:16:12.586Z,67.02
2019-05-07T06:18:45.969Z,67.30
2019-05-07T06:21:18.195Z,67.59
2019-05-07T06:23:52.809Z,66.92
2019-05-07T06:26:25.293Z,66.88
2019-05-07T06:28:57.788Z,65.91
2019-05-07T06:31:32.540Z,66.03
2019-05-07T06:34:04.308Z,65.72
2019-05-07T06:36:36.540Z,65.43
2019-05-07T06:39:08.899Z,63.85
2019-05-07T06:41:41.832Z,64.50
2019-05-07T06:44:14.162Z,64.12
2019-05-07T06:46:48.432Z,63.44
2019-05-07T06:49:22.291Z,62.18
2019-05-07T06:51:55.063Z,61.15
2019-05-07T06:54:27.348Z,60.26
2019-05-07T06:57:01.535Z,60.41
2019-05-07T06:59:34.805Z,60.19
2019-05-07T07:02:07.242Z,59.00
2019-05-07T07:04:42.253Z,58.67
2019-05-07T07:07:26.337Z,59.77
2019-05-07T07:09:47.847Z,57.32
2019-05-07T07:12:25.951Z,57.81
2019-05-07T07:14:58.243Z,57.83
2019-05-07T07:17:32.561Z,57.26
2019-05-07T07:20:04.533Z,57.11
2019-05-07T07:22:36.851Z,56.46
2019-05-07T07:25:09.063Z,56.48
2019-05-07T07:27:42.929Z,56.62
2019-05-07T07:30:15.294Z,56.33
2019-05-07T07:32:47.562Z,55.95
2019-05-07T07:35:19.840Z,55.44
2019-05-07T07:37:53.004Z,54.55
2019-05-07T07:40:26.509Z,54.94
2019-05-07T07:42:58.921Z,55.34
2019-05-07T07:45:32.402Z,54.37
2019-05-07T07:48:04.800Z,54.69
2019-05-07T07:50:37.044Z,56.08
2019-05-07T07:53:09.312Z,54.60
2019-05-07T07:55:42.619Z,54.33
2019-05-07T07:58:14.941Z,53.86
2019-05-07T08:00:47.605Z,53.12
2019-05-07T08:03:19.926Z,52.29
2019-05-07T08:05:52.171Z,54.02
2019-05-07T08:08:24.385Z,53.20
2019-05-07T08:10:56.597Z,52.69
2019-05-07T08:13:28.828Z,52.25
2019-05-07T08:16:02.474Z,51.24
2019-05-07T08:18:34.927Z,52.02
2019-05-07T08:21:08.049Z,51.70
2019-05-07T08:23:42.407Z,50.60
2019-05-07T08:26:14.403Z,51.80
2019-05-07T08:28:48.733Z,52.20
2019-05-07T08:31:22.623Z,50.29
2019-05-07T08:33:55.135Z,50.45
2019-05-07T08:36:28.453Z,51.54
2019-05-07T08:39:02.625Z,50.34
2019-05-07T08:41:36.322Z,49.97
2019-05-07T08:44:12.191Z,49.55
2019-05-07T08:46:43.634Z,49.86
2019-05-07T08:49:15.904Z,50.21
2019-05-07T08:51:48.334Z,49.66
2019-05-07T08:54:22.585Z,46.86
2019-05-07T08:56:54.535Z,47.75
2019-05-07T08:59:27.010Z,47.30
2019-05-07T09:01:59.796Z,48.08
2019-05-07T09:04:32.919Z,46.60
2019-05-07T09:07:05.251Z,46.07
2019-05-07T09:09:37.448Z,45.50
2019-05-07T09:12:11.931Z,46.89
2019-05-07T09:14:43.760Z,46.93
2019-05-07T09:17:16.106Z,47.18
2019-05-07T09:19:52.128Z,46.83
2019-05-07T09:22:22.961Z,45.86
2019-05-07T09:24:55.697Z,45.82
2019-05-07T09:27:28.303Z,45.67
2019-05-07T09:30:02.677Z,45.88
2019-05-07T09:32:35.053Z,45.20
2019-05-07T09:35:07.420Z,46.61
2019-05-07T09:37:39.695Z,47.09
2019-05-07T09:40:12.634Z,47.44
2019-05-07T09:42:45.130Z,47.23
2019-05-07T09:45:17.408Z,47.92
2019-05-07T09:47:52.088Z,46.14
2019-05-07T09:50:23.803Z,46.68
2019-05-07T09:52:56.675Z,45.78
2019-05-07T09:55:32.594Z,44.66
2019-05-07T09:58:05.153Z,44.39
2019-05-07T10:00:37.520Z,45.24
2019-05-07T10:03:09.740Z,42.96
2019-05-07T10:05:42.748Z,42.70
2019-05-07T10:08:17.741Z,43.56
2019-05-07T10:10:51.219Z,42.47
2019-05-07T10:13:23.724Z,41.71
2019-05-07T10:15:55.955Z,41.86
2019-05-07T10:18:28.192Z,40.17
2019-05-07T10:21:02.392Z,39.20
2019-05-07T10:23:34.369Z,39.72
2019-05-07T10:26:06.668Z,39.40
2019-05-07T10:28:38.892Z,39.17
2019-05-07T10:31:11.475Z,39.86
2019-05-07T10:33:43.819Z,40.91
2019-05-07T10:36:16.912Z,41.40
2019-05-07T10:38:49.178Z,41.35
2019-05-07T10:41:22.366Z,40.85
2019-05-07T10:43:54.780Z,42.34
2019-05-07T10:46:27.038Z,41.27
2019-05-07T10:48:59.308Z,40.67
2019-05-07T10:51:32.268Z,39.77
2019-05-07T10:54:04.633Z,40.76
2019-05-07T10:56:36.933Z,39.83
2019-05-07T10:59:09.153Z,38.57
2019-05-07T11:01:42.542Z,38.62
2019-05-07T11:04:14.952Z,37.59
2019-05-07T11:06:47.274Z,39.29
2019-05-07T11:09:19.548Z,38.42
2019-05-07T11:11:51.992Z,38.69
2019-05-07T11:14:24.274Z,38.63
2019-05-07T11:16:56.853Z,38.27
2019-05-07T11:19:29.119Z,38.77
2019-05-07T11:22:01.971Z,37.73
2019-05-07T11:24:34.277Z,38.08
2019-05-07T11:27:06.513Z,39.23
2019-05-07T11:29:38.783Z,39.34
2019-05-07T11:32:12.331Z,40.45
2019-05-07T11:34:44.751Z,41.33
2019-05-07T11:37:17.061Z,41.28
2019-05-07T11:39:49.499Z,40.79
2019-05-07T11:42:24.092Z,42.33
2019-05-07T11:44:56.346Z,42.10
2019-05-07T11:47:28.608Z,42.19
2019-05-07T11:50:03.221Z,42.79
2019-05-07T11:52:35.919Z,42.62
2019-05-07T11:55:08.344Z,41.38
2019-05-07T11:57:44.185Z,41.39
2019-05-07T12:00:14.562Z,41.90
2019-05-07T12:02:47.327Z,41.20
2019-05-07T12:05:19.826Z,41.20
2019-05-07T12:07:52.149Z,41.20
2019-05-07T12:10:24.535Z,40.81
2019-05-07T12:12:56.800Z,41.24
2019-05-07T12:15:29.137Z,41.71
2019-05-07T12:18:02.999Z,40.73
2019-05-07T12:20:35.573Z,41.32
2019-05-07T12:23:07.809Z,40.95
2019-05-07T12:25:42.215Z,40.71
2019-05-07T12:28:14.250Z,39.01
2019-05-07T12:30:46.478Z,38.63
2019-05-07T12:33:18.704Z,39.28
2019-05-07T12:35:52.460Z,40.26
2019-05-07T12:38:24.856Z,40.04
2019-05-07T12:40:57.208Z,40.93
2019-05-07T12:43:31.983Z,42.19
2019-05-07T12:46:04.367Z,42.10
2019-05-07T12:48:36.968Z,42.74
2019-05-07T12:51:09.272Z,42.77
2019-05-07T12:53:42.441Z,44.04
2019-05-07T12:56:14.776Z,43.71
2019-05-07T12:58:49.234Z,44.85
2019-05-07T13:01:22.117Z,44.06
2019-05-07T13:03:54.695Z,43.31
2019-05-07T13:06:26.928Z,43.66
2019-05-07T13:08:59.204Z,42.87
2019-05-07T13:11:32.567Z,42.91
2019-05-07T13:14:04.942Z,42.34
2019-05-07T13:16:37.170Z,42.74
2019-05-07T13:19:09.406Z,41.71
2019-05-07T13:21:49.125Z,40.75
2019-05-07T13:24:15.678Z,41.06
2019-05-07T13:26:47.961Z,40.68
2019-05-07T13:29:22.007Z,40.74
2019-05-07T13:31:54.507Z,41.52
2019-05-07T13:34:26.694Z,40.55
2019-05-07T13:36:58.956Z,40.43
2019-05-07T13:39:32.513Z,40.61
2019-05-07T13:42:04.975Z,39.23
2019-05-07T13:44:37.300Z,39.86
2019-05-07T13:47:09.650Z,39.24
2019-05-07T13:49:42.746Z,39.45
2019-05-07T13:52:15.383Z,39.55
2019-05-07T13:54:47.648Z,38.71
2019-05-07T13:57:19.956Z,38.16
2019-05-07T13:59:53.070Z,37.70
2019-05-07T14:02:25.558Z,37.21
2019-05-07T14:04:57.889Z,36.59
2019-05-07T14:07:32.126Z,36.28
2019-05-07T14:10:04.043Z,37.57
2019-05-07T14:12:36.295Z,38.25
2019-05-07T14:15:08.614Z,39.57
2019-05-07T14:17:40.813Z,40.00
2019-05-07T14:20:13.151Z,40.81
2019-05-07T14:22:45.544Z,41.28
2019-05-07T14:25:17.825Z,41.14
2019-05-07T14:27:52.522Z,40.68
2019-05-07T14:30:24.561Z,41.48
2019-05-07T14:32:57.032Z,41.49
2019-05-07T14:35:29.385Z,41.82
2019-05-07T14:38:01.643Z,43.44
2019-05-07T14:40:33.902Z,41.98
2019-05-07T14:43:08.014Z,40.72
2019-05-07T14:45:42.097Z,41.34
2019-05-07T14:48:14.211Z,38.97
2019-05-07T14:50:46.608Z,37.38
2019-05-07T14:53:18.963Z,37.96
2019-05-07T14:55:51.232Z,38.26
2019-05-07T14:58:23.568Z,38.59
2019-05-07T15:00:56.935Z,37.71
2019-05-07T15:03:29.126Z,37.73
2019-05-07T15:06:02.079Z,36.55
2019-05-07T15:08:34.537Z,37.22
2019-05-07T15:11:07.005Z,36.35
2019-05-07T15:13:40.002Z,36.42
2019-05-07T15:16:12.875Z,36.00
2019-05-07T15:18:45.160Z,36.37
2019-05-07T15:21:17.609Z,35.97
2019-05-07T15:23:49.849Z,36.27
2019-05-07T15:26:22.139Z,37.49
2019-05-07T15:28:54.437Z,36.62
2019-05-07T15:31:26.669Z,36.16
2019-05-07T15:33:59.052Z,36.75
2019-05-07T15:36:32.047Z,35.94
2019-05-07T15:39:04.541Z,36.35
2019-05-07T15:41:38.431Z,37.91
2019-05-07T15:44:11.942Z,36.53
2019-05-07T15:46:45.312Z,34.16
2019-05-07T15:49:17.675Z,35.06
2019-05-07T15:51:49.988Z,35.02
2019-05-07T15:54:22.242Z,35.98
2019-05-07T15:56:54.509Z,36.75
2019-05-07T15:59:26.763Z,37.34
2019-05-07T16:01:59.268Z,34.85
2019-05-07T16:04:32.913Z,34.83
2019-05-07T16:07:09.219Z,36.07
2019-05-07T16:09:41.939Z,35.53
2019-05-07T16:12:15.941Z,35.96
2019-05-07T16:14:48.454Z,36.04
2019-05-07T16:17:21.701Z,36.19
2019-05-07T16:19:55.242Z,37.20
2019-05-07T16:22:27.621Z,36.95
2019-05-07T16:25:04.894Z,38.81
2019-05-07T16:27:34.024Z,38.59
2019-05-07T16:30:06.504Z,38.21
2019-05-07T16:32:39.092Z,39.12
2019-05-07T16:35:12.501Z,38.83
2019-05-07T16:37:45.135Z,37.76
2019-05-07T16:40:17.633Z,37.42
2019-05-07T16:42:52.218Z,38.30
2019-05-07T16:45:24.023Z,37.60
2019-05-07T16:47:56.445Z,37.94
2019-05-07T16:50:28.658Z,36.68
2019-05-07T16:53:02.884Z,35.92
2019-05-07T16:55:36.738Z,36.73
2019-05-07T16:58:09.089Z,35.75
2019-05-07T17:00:42.250Z,35.35
2019-05-07T17:03:17.214Z,33.61
2019-05-07T17:05:52.272Z,32.72
2019-05-07T17:08:24.078Z,32.98
2019-05-07T17:10:56.374Z,33.00
2019-05-07T17:13:28.599Z,32.88
2019-05-07T17:16:03.238Z,32.92
2019-05-07T17:18:35.087Z,33.98
2019-05-07T17:21:07.366Z,35.41
2019-05-07T17:23:44.408Z,35.68
2019-05-07T17:26:13.575Z,36.13
2019-05-07T17:28:46.040Z,37.76
2019-05-07T17:31:18.319Z,37.27
2019-05-07T17:33:51.669Z,35.06
2019-05-07T17:36:24.136Z,34.97
2019-05-07T17:38:56.387Z,32.96
2019-05-07T17:41:28.714Z,31.89
2019-05-07T17:44:02.692Z,32.76
2019-05-07T17:46:34.967Z,34.70
2019-05-07T17:49:07.268Z,36.82
2019-05-07T17:51:41.882Z,36.89
2019-05-07T17:54:13.526Z,38.39
2019-05-07T17:56:46.936Z,38.00
2019-05-07T17:59:19.264Z,39.27
2019-05-07T18:01:53.088Z,38.32
2019-05-07T18:04:25.588Z,39.25
2019-05-07T18:07:00.334Z,40.31
2019-05-07T18:09:32.055Z,40.43
2019-05-07T18:12:04.979Z,41.18
2019-05-07T18:14:37.305Z,41.92
2019-05-07T18:17:09.537Z,42.84
2019-05-07T18:19:42.033Z,42.83
2019-05-07T18:22:14.248Z,43.12
2019-05-07T18:24:47.793Z,43.62
2019-05-07T18:27:22.204Z,42.49
2019-05-07T18:29:54.220Z,41.89
2019-05-07T18:32:26.489Z,43.18
2019-05-07T18:34:58.716Z,43.94
2019-05-07T18:37:32.649Z,43.49
2019-05-07T18:40:05.113Z,44.06
2019-05-07T18:42:37.811Z,44.22
2019-05-07T18:45:12.312Z,44.36
2019-05-07T18:47:44.576Z,44.65
2019-05-07T18:50:17.249Z,43.63
2019-05-07T18:52:49.599Z,44.08
2019-05-07T18:55:22.811Z,43.80
2019-05-07T18:57:55.626Z,44.77
2019-05-07T19:00:28.439Z,45.67
2019-05-07T19:03:03.129Z,45.81
2019-05-07T19:05:35.477Z,45.83
2019-05-07T19:08:08.954Z,46.63
2019-05-07T19:10:42.876Z,46.91
2019-05-07T19:13:15.510Z,46.70
2019-05-07T19:15:48.021Z,47.21
2019-05-07T19:18:22.593Z,47.57
2019-05-07T19:20:54.381Z,47.27
2019-05-07T19:23:27.681Z,47.76
2019-05-07T19:26:02.329Z,47.88
2019-05-07T19:28:34.043Z,48.22
2019-05-07T19:31:06.444Z,48.13
2019-05-07T19:33:38.512Z,48.34
2019-05-07T19:36:10.757Z,48.09
2019-05-07T19:38:43.177Z,48.54
2019-05-07T19:41:15.847Z,48.72
2019-05-07T19:43:48.508Z,48.44
2019-05-07T19:46:22.798Z,48.34
2019-05-07T19:48:55.041Z,48.48
2019-05-07T19:51:27.365Z,48.91
2019-05-07T19:54:01.933Z,49.04
2019-05-07T19:56:33.773Z,49.48
2019-05-07T19:59:06.105Z,49.90
2019-05-07T20:01:38.436Z,49.98
2019-05-07T20:04:10.763Z,50.48
2019-05-07T20:06:43.046Z,50.19
2019-05-07T20:09:15.836Z,50.62
2019-05-07T20:11:48.513Z,51.23
2019-05-07T20:14:22.300Z,50.66
2019-05-07T20:16:55.085Z,51.01
2019-05-07T20:19:27.472Z,51.09
2019-05-07T20:22:01.966Z,51.18
2019-05-07T20:24:33.885Z,51.08
2019-05-07T20:27:06.127Z,51.33
2019-05-07T20:29:38.595Z,51.70
2019-05-07T20:32:11.210Z,51.76
2019-05-07T20:34:43.723Z,51.99
2019-05-07T20:37:16.070Z,51.25
2019-05-07T20:39:48.453Z,52.09
2019-05-07T20:42:23.120Z,52.43
2019-05-07T20:44:55.170Z,52.31
2019-05-07T20:47:27.393Z,52.29
2019-05-07T20:49:59.711Z,52.92
2019-05-07T20:52:32.614Z,52.09
2019-05-07T20:55:04.884Z,52.57
2019-05-07T20:57:37.107Z,52.81
2019-05-07T21:00:09.394Z,53.49
2019-05-07T21:02:47.942Z,53.25
2019-05-07T21:05:17.180Z,53.62
2019-05-07T21:07:49.506Z,53.83
2019-05-07T21:10:22.197Z,53.59
2019-05-07T21:12:54.559Z,53.07
2019-05-07T21:15:27.120Z,53.84
2019-05-07T21:17:59.373Z,53.42
2019-05-07T21:20:32.348Z,53.81
2019-05-07T21:23:04.780Z,54.04
2019-05-07T21:25:43.451Z,53.92
2019-05-07T21:28:12.165Z,53.55
2019-05-07T21:30:44.751Z,53.96
2019-05-07T21:33:19.876Z,54.34
2019-05-07T21:35:52.527Z,53.95
2019-05-07T21:38:24.892Z,54.41
2019-05-07T21:40:57.152Z,54.34
2019-05-07T21:43:29.487Z,54.98
2019-05-07T21:46:02.421Z,54.96
2019-05-07T21:48:35.913Z,55.05
2019-05-07T21:51:08.147Z,55.08
2019-05-07T21:53:40.385Z,54.90
2019-05-07T21:56:12.638Z,55.26
2019-05-07T21:58:44.943Z,55.12
2019-05-07T22:01:21.835Z,54.83
2019-05-07T22:03:53.878Z,55.29
2019-05-07T22:06:26.100Z,55.54
2019-05-07T22:08:58.535Z,55.95
2019-05-07T22:11:32.316Z,55.97
2019-05-07T22:14:04.791Z,56.00
2019-05-07T22:16:37.035Z,55.98
2019-05-07T22:19:09.374Z,55.92
2019-05-07T22:21:43.183Z,55.85
2019-05-07T22:24:15.812Z,55.96
2019-05-07T22:26:48.046Z,55.91
2019-05-07T22:29:22.570Z,55.74
2019-05-07T22:31:54.434Z,55.91
2019-05-07T22:34:26.682Z,56.04
2019-05-07T22:37:03.039Z,56.03
2019-05-07T22:39:39.345Z,56.38
2019-05-07T22:42:13.223Z,56.44
2019-05-07T22:44:45.660Z,56.80
2019-05-07T22:47:17.958Z,56.67
2019-05-07T22:49:50.156Z,57.19
2019-05-07T22:52:22.629Z,57.43
2019-05-07T22:54:54.902Z,57.09
2019-05-07T22:57:27.128Z,57.21
2019-05-07T23:00:04.231Z,57.47
2019-05-07T23:02:34.958Z,57.38
2019-05-07T23:05:07.461Z,57.23
2019-05-07T23:07:41.800Z,57.10
2019-05-07T23:10:13.679Z,57.03
2019-05-07T23:12:45.986Z,57.05
2019-05-07T23:15:18.232Z,57.29
2019-05-07T23:17:50.453Z,57.33
2019-05-07T23:20:24.451Z,57.62
2019-05-07T23:22:56.793Z,57.80
2019-05-07T23:25:29.037Z,57.73
2019-05-07T23:28:04.914Z,57.72
2019-05-07T23:30:35.222Z,57.70
2019-05-07T23:33:07.417Z,57.49
2019-05-07T23:35:42.003Z,57.32
2019-05-07T23:38:15.891Z,57.37
2019-05-07T23:40:47.851Z,57.11
2019-05-07T23:43:20.102Z,57.18
2019-05-07T23:45:52.691Z,57.00
2019-05-07T23:48:25.107Z,56.96
2019-05-07T23:50:57.438Z,56.66
2019-05-07T23:53:29.639Z,56.87
2019-05-07T23:56:02.822Z,56.95
2019-05-07T23:58:35.373Z,56.51
